Time;durP1;ratioP1;P1;durP2;ratioP2;P2;SDS_P1;SDS_P2;PMS_P1;PMS_P2;Temp;Humidity;BMP_temperature;BMP_pressure;BME280_temperature;BME280_humidity;BME280_pressure;Samples;Min_cycle;Max_cycle;Signal;HPM_P1;HPM_P2
2022/09/18 00:01:29;;;;;;;2.33;0.40;;;15.10;99.90;;;;;;5053695;28;20100;-76
2022/09/18 00:03:59;;;;;;;0.50;0.35;;;15.20;99.90;;;;;;5053763;28;20028;-82
2022/09/18 00:06:30;;;;;;;5.32;0.77;;;15.10;99.90;;;;;;5053554;28;20017;-79
2022/09/18 00:09:00;;;;;;;1.50;0.70;;;15.20;99.90;;;;;;5052198;28;20082;-83
2022/09/18 00:11:32;;;;;;;2.45;0.47;;;15.20;99.90;;;;;;5053719;28;20124;-83
2022/09/18 00:14:00;;;;;;;1.75;0.75;;;15.30;99.90;;;;;;5051724;28;20102;-82
2022/09/18 00:16:27;;;;;;;2.65;0.45;;;15.30;99.90;;;;;;5053310;28;20024;-82
2022/09/18 00:18:55;;;;;;;1.85;0.70;;;15.40;99.90;;;;;;5053466;28;20474;-78
2022/09/18 00:21:25;;;;;;;0.75;0.50;;;15.40;99.90;;;;;;5054199;28;20067;-83
2022/09/18 00:23:56;;;;;;;1.35;0.45;;;15.40;99.90;;;;;;5052139;28;20021;-81
2022/09/18 00:26:27;;;;;;;3.00;0.85;;;15.50;99.90;;;;;;5053484;28;20071;-80
2022/09/18 00:28:56;;;;;;;1.02;0.50;;;15.50;99.90;;;;;;5053401;28;20017;-82
2022/09/18 00:31:30;;;;;;;1.65;0.47;;;15.70;99.90;;;;;;5053231;28;20045;-81
2022/09/18 00:33:59;;;;;;;1.30;0.60;;;15.60;99.90;;;;;;5053900;28;20530;-82
2022/09/18 00:36:28;;;;;;;0.95;0.20;;;15.60;99.90;;;;;;5052993;28;20386;-82
2022/09/18 00:39:01;;;;;;;0.60;0.40;;;15.70;99.90;;;;;;5053382;28;20025;-82
2022/09/18 00:41:35;;;;;;;0.55;0.20;;;15.80;99.90;;;;;;5053108;28;20028;-81
2022/09/18 00:44:38;;;;;;;0.95;0.52;;;15.80;99.90;;;;;;5053716;28;20025;-82
2022/09/18 00:47:34;;;;;;;0.63;0.30;;;15.80;99.90;;;;;;5053462;28;20025;-84
2022/09/18 00:50:16;;;;;;;1.83;0.53;;;15.90;99.90;;;;;;5053097;28;20029;-83
2022/09/18 00:52:46;;;;;;;2.13;0.55;;;16.00;99.90;;;;;;5053200;28;20274;-83
2022/09/18 00:55:15;;;;;;;0.63;0.40;;;16.10;99.90;;;;;;5053154;28;20021;-79
2022/09/18 00:57:50;;;;;;;1.42;0.40;;;16.10;99.90;;;;;;5053195;28;20017;-83
2022/09/18 01:00:18;;;;;;;2.17;0.52;;;16.10;99.90;;;;;;5053042;28;20104;-83
2022/09/18 01:02:47;;;;;;;0.32;0.20;;;16.10;99.90;;;;;;5052801;28;20049;-81
2022/09/18 01:05:50;;;;;;;2.33;0.75;;;16.20;99.90;;;;;;5053101;28;20474;-81
2022/09/18 01:08:38;;;;;;;1.67;0.47;;;16.30;99.90;;;;;;5051127;28;20033;-82
2022/09/18 01:11:11;;;;;;;1.40;0.38;;;16.30;99.90;;;;;;5045895;28;20102;-81
2022/09/18 01:13:48;;;;;;;0.75;0.40;;;16.40;99.90;;;;;;5053131;28;20031;-82
2022/09/18 01:16:21;;;;;;;0.43;0.30;;;16.40;99.90;;;;;;5053365;28;20017;-81
2022/09/18 01:19:19;;;;;;;0.75;0.40;;;16.50;99.90;;;;;;5052788;28;20049;-75
2022/09/18 01:22:04;;;;;;;0.75;0.30;;;16.50;99.90;;;;;;5052719;28;20021;-80
2022/09/18 01:24:56;;;;;;;0.95;0.40;;;16.70;99.90;;;;;;5052954;28;20033;-81
2022/09/18 01:27:51;;;;;;;2.42;0.35;;;16.70;99.90;;;;;;5056346;28;20091;-82
2022/09/18 01:30:19;;;;;;;0.75;0.20;;;16.70;99.90;;;;;;5056647;28;20040;-82
2022/09/18 01:32:56;;;;;;;1.20;0.30;;;16.90;99.90;;;;;;5056544;28;20021;-82
2022/09/18 01:35:38;;;;;;;1.60;0.73;;;17.00;99.90;;;;;;5056369;28;20025;-82
2022/09/18 01:38:18;;;;;;;1.63;0.30;;;17.00;99.90;;;;;;5056505;28;20104;-82
2022/09/18 01:41:09;;;;;;;0.55;0.38;;;17.00;99.90;;;;;;5056314;28;20025;-83
2022/09/18 01:43:39;;;;;;;0.50;0.40;;;17.10;99.90;;;;;;5056235;28;20056;-83
2022/09/18 01:46:18;;;;;;;1.55;0.60;;;17.30;99.90;;;;;;5056250;28;20032;-84
2022/09/18 01:49:03;;;;;;;0.52;0.30;;;17.30;99.90;;;;;;5056204;28;20130;-83
2022/09/18 01:51:59;;;;;;;0.90;0.52;;;17.30;99.90;;;;;;5056154;28;20029;-83
2022/09/18 01:54:32;;;;;;;2.38;0.50;;;17.40;99.90;;;;;;5055938;28;20029;-83
2022/09/18 01:57:26;;;;;;;2.42;0.50;;;17.60;99.90;;;;;;5055859;28;20036;-82
2022/09/18 02:00:04;;;;;;;6.10;0.70;;;17.60;99.90;;;;;;5056229;28;20381;-81
2022/09/18 02:02:42;;;;;;;0.95;0.50;;;17.70;99.90;;;;;;5054434;28;20404;-76
2022/09/18 02:05:19;;;;;;;0.28;0.28;;;17.80;99.90;;;;;;5056550;28;20029;-76
2022/09/18 02:08:04;;;;;;;1.23;0.20;;;17.80;99.90;;;;;;5055747;28;20104;-80
2022/09/18 02:10:37;;;;;;;0.67;0.50;;;17.90;99.90;;;;;;5056049;28;20037;-80
2022/09/18 02:13:07;;;;;;;1.27;0.50;;;18.10;99.90;;;;;;5055723;28;20628;-77
2022/09/18 02:15:39;;;;;;;1.10;0.30;;;18.10;99.90;;;;;;5055818;28;20029;-76
2022/09/18 02:18:13;;;;;;;2.10;0.45;;;18.10;99.90;;;;;;5055738;28;20017;-76
2022/09/18 02:20:44;;;;;;;2.15;0.52;;;18.10;99.90;;;;;;5056419;28;20411;-77
2022/09/18 02:23:13;;;;;;;1.40;0.30;;;18.20;99.90;;;;;;5055869;28;20104;-76
2022/09/18 02:25:47;;;;;;;0.80;0.30;;;18.20;99.90;;;;;;5055448;28;20433;-77
2022/09/18 02:28:18;;;;;;;0.75;0.30;;;18.20;99.90;;;;;;5054275;28;20032;-77
2022/09/18 02:30:46;;;;;;;1.23;0.40;;;18.30;99.90;;;;;;5055666;28;20442;-84
2022/09/18 02:33:46;;;;;;;1.13;0.50;;;18.50;99.90;;;;;;5055610;28;20381;-84
2022/09/18 02:36:28;;;;;;;6.45;0.65;;;18.70;99.90;;;;;;5032769;28;20029;-79
2022/09/18 02:39:13;;;;;;;0.80;0.30;;;18.70;99.90;;;;;;5054695;28;20033;-83
2022/09/18 02:42:11;;;;;;;1.88;0.35;;;18.70;99.90;;;;;;5055443;28;20021;-85
2022/09/18 02:44:52;;;;;;;1.45;0.50;;;18.80;98.20;;;;;;5055160;28;20028;-83
2022/09/18 02:47:41;;;;;;;0.60;0.30;;;18.80;99.90;;;;;;5055345;28;20382;-81
2022/09/18 02:50:49;;;;;;;3.97;0.47;;;18.80;99.30;;;;;;5055176;28;20025;-82
2022/09/18 02:53:29;;;;;;;1.50;0.50;;;18.80;99.00;;;;;;5035133;28;20037;-83
2022/09/18 02:56:10;;;;;;;0.38;0.28;;;18.90;99.90;;;;;;5055278;28;20374;-84
2022/09/18 02:59:00;;;;;;;0.77;0.30;;;18.90;99.90;;;;;;5054993;28;20086;-84
2022/09/18 03:01:28;;;;;;;1.63;0.50;;;19.10;98.70;;;;;;5054834;28;20017;-77
2022/09/18 03:04:19;;;;;;;2.38;0.63;;;19.20;98.20;;;;;;5055011;28;20390;-83
2022/09/18 03:06:46;;;;;;;1.85;0.30;;;19.30;97.50;;;;;;5055514;28;20059;-85
2022/09/18 03:09:17;;;;;;;1.35;0.28;;;19.30;97.80;;;;;;5053554;28;20053;-84
2022/09/18 03:11:45;;;;;;;2.25;0.47;;;19.30;95.60;;;;;;5054634;28;20039;-83
2022/09/18 03:14:13;;;;;;;0.57;0.22;;;19.30;97.00;;;;;;5054498;28;20071;-77
2022/09/18 03:16:41;;;;;;;1.05;0.20;;;19.40;97.10;;;;;;5054468;28;20446;-82
2022/09/18 03:19:10;;;;;;;4.25;0.50;;;19.50;97.70;;;;;;5054519;28;20428;-83
2022/09/18 03:21:38;;;;;;;0.47;0.35;;;19.50;96.10;;;;;;5054580;28;20036;-79
2022/09/18 03:24:06;;;;;;;1.10;0.30;;;19.50;97.70;;;;;;5054450;28;20048;-82
2022/09/18 03:26:34;;;;;;;2.58;0.63;;;19.60;97.30;;;;;;5054402;28;20028;-80
2022/09/18 03:29:01;;;;;;;4.07;0.35;;;19.50;96.60;;;;;;5054207;28;20021;-81
2022/09/18 03:31:29;;;;;;;2.05;0.52;;;19.50;96.40;;;;;;5054161;28;20044;-83
2022/09/18 03:33:57;;;;;;;2.20;0.32;;;19.50;96.40;;;;;;5054306;28;20097;-82
2022/09/18 03:36:25;;;;;;;1.85;0.43;;;19.60;96.60;;;;;;5053971;28;20039;-81
2022/09/18 03:38:52;;;;;;;0.52;0.25;;;19.60;97.30;;;;;;5054090;28;20099;-83
2022/09/18 03:41:21;;;;;;;0.70;0.30;;;19.60;95.80;;;;;;5054385;28;20112;-83
2022/09/18 03:43:50;;;;;;;0.70;0.32;;;19.80;95.90;;;;;;5053161;28;20426;-85
2022/09/18 03:46:23;;;;;;;0.95;0.40;;;19.80;94.90;;;;;;5054027;28;20090;-82
2022/09/18 03:48:52;;;;;;;0.82;0.20;;;19.90;93.80;;;;;;5053950;28;20024;-85
2022/09/18 03:51:20;;;;;;;1.83;0.30;;;19.90;94.30;;;;;;5053839;28;20501;-82
2022/09/18 03:53:50;;;;;;;1.27;0.40;;;19.90;94.60;;;;;;5053894;28;20103;-84
2022/09/18 03:56:18;;;;;;;1.35;0.55;;;19.90;94.50;;;;;;5053832;28;20074;-85
2022/09/18 03:58:45;;;;;;;2.38;0.40;;;19.80;95.30;;;;;;5053558;28;20021;-82
2022/09/18 04:01:13;;;;;;;0.80;0.40;;;19.60;94.10;;;;;;5054662;28;20104;-78
2022/09/18 04:03:41;;;;;;;1.33;0.50;;;19.70;94.10;;;;;;5053585;28;20053;-83
2022/09/18 04:06:09;;;;;;;1.17;0.47;;;19.80;95.60;;;;;;5054095;28;20109;-85
2022/09/18 04:08:37;;;;;;;1.17;0.50;;;19.90;95.50;;;;;;5052843;28;20048;-86
2022/09/18 04:11:05;;;;;;;1.83;0.28;;;20.00;94.60;;;;;;5053771;28;20541;-89
2022/09/18 04:13:34;;;;;;;1.15;0.35;;;19.90;94.50;;;;;;5054689;28;20025;-89
2022/09/18 04:16:02;;;;;;;2.08;0.60;;;20.00;94.10;;;;;;5049190;28;20043;-79
2022/09/18 04:18:30;;;;;;;0.98;0.35;;;20.20;94.30;;;;;;5052277;28;20031;-89
2022/09/18 04:20:57;;;;;;;1.58;0.40;;;20.10;94.80;;;;;;5053045;28;20517;-90
2022/09/18 04:23:25;;;;;;;1.08;0.50;;;20.20;94.00;;;;;;5052763;28;20428;-90
2022/09/18 04:25:53;;;;;;;2.05;0.40;;;20.20;94.80;;;;;;5054562;28;20021;-87
2022/09/18 04:28:21;;;;;;;1.50;0.70;;;20.20;93.30;;;;;;5053035;28;20041;-89
2022/09/18 04:30:49;;;;;;;1.17;0.40;;;20.20;94.20;;;;;;5053153;28;20036;-88
2022/09/18 04:33:16;;;;;;;1.90;0.40;;;20.20;94.40;;;;;;5051315;28;20470;-83
2022/09/18 04:35:44;;;;;;;1.17;0.30;;;20.30;94.60;;;;;;5052545;28;20040;-78
2022/09/18 04:38:12;;;;;;;1.35;0.50;;;20.30;94.80;;;;;;5054892;28;20028;-88
2022/09/18 04:40:43;;;;;;;1.75;0.77;;;20.30;93.60;;;;;;5055690;28;20021;-84
2022/09/18 04:43:11;;;;;;;1.13;0.40;;;20.20;93.70;;;;;;5050912;28;20029;-82
2022/09/18 04:45:38;;;;;;;1.38;0.57;;;20.20;94.10;;;;;;5053104;28;20026;-87
2022/09/18 04:48:06;;;;;;;1.73;0.32;;;20.20;94.80;;;;;;5053321;28;20115;-85
2022/09/18 04:50:34;;;;;;;1.67;0.30;;;20.30;96.60;;;;;;5052757;28;20083;-81
2022/09/18 04:53:02;;;;;;;1.38;0.30;;;20.30;94.40;;;;;;5053016;28;20155;-84
2022/09/18 04:55:29;;;;;;;0.52;0.30;;;20.30;94.80;;;;;;5052675;28;20462;-81
2022/09/18 04:57:57;;;;;;;3.50;0.55;;;20.20;94.50;;;;;;5047449;28;20021;-84
2022/09/18 05:00:27;;;;;;;1.27;0.63;;;20.20;94.20;;;;;;5053215;28;20561;-80
2022/09/18 05:02:55;;;;;;;1.20;0.50;;;20.10;93.20;;;;;;5056828;28;20132;-86
2022/09/18 05:05:23;;;;;;;0.68;0.40;;;20.00;94.80;;;;;;5056848;28;20113;-77
2022/09/18 05:07:51;;;;;;;0.50;0.30;;;19.90;94.30;;;;;;5057022;28;20432;-75
2022/09/18 05:10:19;;;;;;;0.90;0.30;;;19.90;92.70;;;;;;5056917;28;20037;-83
2022/09/18 05:12:47;;;;;;;1.42;0.30;;;20.00;92.40;;;;;;5057158;28;20072;-77
2022/09/18 05:15:15;;;;;;;0.77;0.50;;;19.90;93.20;;;;;;5056739;28;20025;-81
2022/09/18 05:17:43;;;;;;;0.98;0.45;;;19.90;92.80;;;;;;5056791;28;20425;-76
2022/09/18 05:20:11;;;;;;;2.78;0.45;;;19.80;94.10;;;;;;5056666;28;20028;-78
2022/09/18 05:22:43;;;;;;;0.80;0.30;;;19.70;92.70;;;;;;5056617;28;20021;-76
2022/09/18 05:25:11;;;;;;;1.40;0.52;;;19.70;93.30;;;;;;5056953;28;20017;-77
2022/09/18 05:27:39;;;;;;;3.35;0.43;;;19.70;93.00;;;;;;5056489;28;20142;-77
2022/09/18 05:30:07;;;;;;;1.80;0.70;;;19.50;92.70;;;;;;5056393;28;20039;-77
2022/09/18 05:32:35;;;;;;;1.35;0.35;;;19.60;93.10;;;;;;5056039;28;20032;-74
2022/09/18 05:35:03;;;;;;;3.63;0.38;;;19.60;92.60;;;;;;5056330;28;20025;-76
2022/09/18 05:37:30;;;;;;;1.10;0.45;;;19.50;91.40;;;;;;5056604;28;20029;-77
2022/09/18 05:39:58;;;;;;;2.85;0.70;;;19.50;92.60;;;;;;5056871;28;20020;-75
2022/09/18 05:42:26;;;;;;;0.52;0.28;;;19.40;92.20;;;;;;5055474;28;20482;-74
2022/09/18 05:44:54;;;;;;;1.30;0.47;;;19.40;91.20;;;;;;5054890;28;20103;-78
2022/09/18 05:47:21;;;;;;;1.05;0.30;;;19.30;93.00;;;;;;5054651;28;20520;-75
2022/09/18 05:49:49;;;;;;;1.85;0.40;;;19.30;93.60;;;;;;5052380;28;20331;-75
2022/09/18 05:52:17;;;;;;;3.08;0.20;;;19.30;92.90;;;;;;5052630;28;20021;-75
2022/09/18 05:54:44;;;;;;;0.50;0.32;;;19.30;93.70;;;;;;5052503;28;20021;-75
2022/09/18 05:57:12;;;;;;;1.77;0.50;;;19.20;91.90;;;;;;5051198;28;20478;-74
2022/09/18 05:59:40;;;;;;;0.63;0.50;;;19.10;93.60;;;;;;5052446;28;20108;-75
2022/09/18 06:02:10;;;;;;;1.63;0.35;;;19.10;93.30;;;;;;5052310;28;20506;-75
2022/09/18 06:04:38;;;;;;;1.92;0.82;;;19.00;93.30;;;;;;5053243;28;20044;-73
2022/09/18 06:07:07;;;;;;;1.92;0.73;;;18.90;93.90;;;;;;5054713;28;20013;-76
2022/09/18 06:09:35;;;;;;;0.60;0.22;;;19.00;94.30;;;;;;5055790;28;20036;-75
2022/09/18 06:12:02;;;;;;;1.63;0.70;;;18.90;94.40;;;;;;5054916;28;20025;-77
2022/09/18 06:14:30;;;;;;;2.38;0.60;;;18.90;93.80;;;;;;5055851;28;20032;-73
2022/09/18 06:16:59;;;;;;;0.65;0.55;;;18.80;94.50;;;;;;5055586;28;20033;-76
2022/09/18 06:19:26;;;;;;;0.90;0.50;;;18.80;93.90;;;;;;5055562;28;20106;-74
2022/09/18 06:21:54;;;;;;;1.80;0.25;;;18.70;93.70;;;;;;5055560;28;20033;-76
2022/09/18 06:24:22;;;;;;;1.17;0.50;;;18.70;94.30;;;;;;5055711;28;20352;-77
2022/09/18 06:26:50;;;;;;;1.08;0.40;;;18.70;94.50;;;;;;5055610;28;20028;-77
2022/09/18 06:29:17;;;;;;;1.52;0.50;;;18.70;94.20;;;;;;5055661;28;20378;-78
2022/09/18 06:31:45;;;;;;;3.50;0.50;;;18.60;94.60;;;;;;5055415;28;20093;-74
2022/09/18 06:34:13;;;;;;;2.30;0.50;;;18.60;93.20;;;;;;5055470;28;20377;-76
2022/09/18 06:36:43;;;;;;;3.08;0.60;;;18.50;93.90;;;;;;5055312;28;20466;-74
2022/09/18 06:39:11;;;;;;;1.73;0.50;;;18.50;93.70;;;;;;5055658;28;20038;-77
2022/09/18 06:41:39;;;;;;;1.52;0.63;;;18.40;94.00;;;;;;5055404;28;20150;-74
2022/09/18 06:44:06;;;;;;;1.58;0.40;;;18.20;94.00;;;;;;5055336;28;20429;-77
2022/09/18 06:46:34;;;;;;;1.15;0.25;;;18.20;94.60;;;;;;5055375;28;20445;-76
2022/09/18 06:49:02;;;;;;;3.20;0.45;;;18.20;95.40;;;;;;5055336;28;20488;-77
2022/09/18 06:51:30;;;;;;;1.17;0.32;;;18.10;95.70;;;;;;5055408;28;20048;-77
2022/09/18 06:53:58;;;;;;;1.55;0.60;;;18.10;94.20;;;;;;5055540;28;20135;-77
2022/09/18 06:56:25;;;;;;;4.32;0.40;;;18.10;93.10;;;;;;5054004;28;20025;-76
2022/09/18 06:58:53;;;;;;;1.15;0.55;;;18.00;94.90;;;;;;5055508;28;20025;-78
2022/09/18 07:01:21;;;;;;;3.30;0.77;;;17.90;95.50;;;;;;5055104;28;20036;-77
2022/09/18 07:03:49;;;;;;;1.25;0.47;;;17.80;95.20;;;;;;5054987;28;20505;-77
2022/09/18 07:06:17;;;;;;;3.65;0.40;;;17.80;95.70;;;;;;5054840;28;20040;-77
2022/09/18 07:08:45;;;;;;;0.90;0.40;;;17.70;95.70;;;;;;5054701;28;20546;-76
2022/09/18 07:11:13;;;;;;;1.15;0.50;;;17.70;96.00;;;;;;5054569;28;20033;-75
2022/09/18 07:13:40;;;;;;;0.75;0.40;;;17.60;94.30;;;;;;5053677;28;20021;-74
2022/09/18 07:16:08;;;;;;;4.45;0.63;;;17.60;94.80;;;;;;5054709;28;20033;-77
2022/09/18 07:18:36;;;;;;;1.85;0.30;;;17.50;95.00;;;;;;5054721;28;20021;-76
2022/09/18 07:21:04;;;;;;;1.00;0.40;;;17.50;94.80;;;;;;5054550;28;20037;-77
2022/09/18 07:23:32;;;;;;;0.90;0.47;;;17.40;95.00;;;;;;5054739;28;20390;-77
2022/09/18 07:26:01;;;;;;;2.00;0.50;;;17.30;95.50;;;;;;5054564;28;20029;-77
2022/09/18 07:28:29;;;;;;;1.45;0.40;;;17.20;95.50;;;;;;5053278;28;20032;-76
2022/09/18 07:31:05;;;;;;;1.58;0.20;;;17.20;95.70;;;;;;5055233;28;20035;-76
2022/09/18 07:33:34;;;;;;;1.95;0.90;;;17.10;95.40;;;;;;5054333;28;20044;-78
2022/09/18 07:36:06;;;;;;;0.73;0.30;;;17.00;96.20;;;;;;5054468;28;20485;-76
2022/09/18 07:38:34;;;;;;;1.38;0.35;;;17.00;94.80;;;;;;5054861;28;20470;-78
2022/09/18 07:41:05;;;;;;;3.83;0.77;;;17.00;95.90;;;;;;5055276;28;20037;-78
2022/09/18 07:43:35;;;;;;;2.65;0.68;;;16.90;95.40;;;;;;5054315;28;20027;-77
2022/09/18 07:46:03;;;;;;;1.38;0.75;;;16.90;94.00;;;;;;5054411;28;20066;-78
2022/09/18 07:48:31;;;;;;;0.20;0.20;;;16.80;95.10;;;;;;5053846;28;20013;-78
2022/09/18 07:50:59;;;;;;;1.27;0.40;;;16.70;95.90;;;;;;5053922;28;20116;-78
2022/09/18 07:53:28;;;;;;;1.40;0.60;;;16.60;95.50;;;;;;5054069;28;20025;-78
2022/09/18 07:55:56;;;;;;;0.88;0.55;;;16.50;96.00;;;;;;5053594;28;20060;-78
2022/09/18 07:58:24;;;;;;;3.90;1.33;;;16.40;96.10;;;;;;5053683;28;20494;-77
2022/09/18 08:00:51;;;;;;;0.47;0.40;;;16.40;97.20;;;;;;5053692;28;20029;-76
2022/09/18 08:03:19;;;;;;;1.77;0.50;;;16.30;96.60;;;;;;5053521;28;20068;-75
2022/09/18 08:05:46;;;;;;;1.13;0.50;;;16.20;96.10;;;;;;5053711;28;20035;-76
2022/09/18 08:08:15;;;;;;;1.52;0.60;;;16.20;96.10;;;;;;5053618;28;20029;-77
2022/09/18 08:10:44;;;;;;;0.68;0.38;;;16.10;95.80;;;;;;5053757;28;20588;-77
2022/09/18 08:13:12;;;;;;;6.22;0.50;;;16.10;95.90;;;;;;5053457;28;20044;-77
2022/09/18 08:15:41;;;;;;;2.08;0.52;;;16.10;95.70;;;;;;5053460;28;20413;-78
2022/09/18 08:18:12;;;;;;;2.03;0.80;;;16.10;96.50;;;;;;5053478;28;20053;-78
2022/09/18 08:20:40;;;;;;;2.05;0.65;;;16.10;95.70;;;;;;5053563;28;20029;-79
2022/09/18 08:23:09;;;;;;;2.00;0.60;;;16.10;96.00;;;;;;5053343;28;20024;-78
2022/09/18 08:25:37;;;;;;;1.55;0.63;;;16.00;96.40;;;;;;5053385;28;20025;-78
2022/09/18 08:28:06;;;;;;;1.27;0.57;;;16.00;96.20;;;;;;5053256;28;20029;-78
2022/09/18 08:30:35;;;;;;;2.22;0.70;;;15.90;95.70;;;;;;5053342;28;20064;-77
2022/09/18 08:33:06;;;;;;;1.80;0.73;;;15.80;97.00;;;;;;5053397;28;20025;-78
2022/09/18 08:35:34;;;;;;;3.67;0.70;;;15.80;96.70;;;;;;5052625;28;20025;-75
2022/09/18 08:38:02;;;;;;;3.67;0.57;;;15.80;97.40;;;;;;5053357;28;20025;-75
2022/09/18 08:40:42;;;;;;;0.80;0.45;;;15.70;97.70;;;;;;5053278;28;20410;-79
2022/09/18 08:43:28;;;;;;;2.17;0.50;;;15.60;97.30;;;;;;5053435;28;20021;-78
2022/09/18 08:46:10;;;;;;;2.67;0.55;;;15.60;98.40;;;;;;5053473;28;20020;-75
2022/09/18 08:48:55;;;;;;;1.38;0.50;;;15.50;97.90;;;;;;5053363;28;20112;-76
2022/09/18 08:51:30;;;;;;;1.93;0.63;;;15.50;97.30;;;;;;5053150;28;20072;-78
2022/09/18 08:54:17;;;;;;;4.18;0.77;;;15.50;97.90;;;;;;5053712;28;20246;-79
2022/09/18 08:56:45;;;;;;;0.95;0.40;;;15.40;97.70;;;;;;5053314;28;20017;-78
2022/09/18 08:59:29;;;;;;;1.55;0.50;;;15.40;98.00;;;;;;5053119;28;20374;-76
2022/09/18 09:02:15;;;;;;;3.38;0.82;;;15.40;97.50;;;;;;5051345;28;20056;-74
2022/09/18 09:04:43;;;;;;;4.10;0.70;;;15.30;98.00;;;;;;5053392;28;20017;-75
2022/09/18 09:07:31;;;;;;;0.73;0.40;;;15.30;98.40;;;;;;5053063;28;20386;-77
2022/09/18 09:10:25;;;;;;;3.17;0.98;;;15.20;98.50;;;;;;5053350;28;20095;-76
2022/09/18 09:12:58;;;;;;;2.03;0.90;;;15.20;99.60;;;;;;5052971;28;20100;-74
2022/09/18 09:15:41;;;;;;;0.93;0.40;;;15.10;98.80;;;;;;5052880;28;20027;-74
2022/09/18 09:18:18;;;;;;;2.05;0.77;;;15.10;98.50;;;;;;5052685;28;20086;-75
2022/09/18 09:20:53;;;;;;;1.35;0.50;;;15.10;99.20;;;;;;5053004;28;20021;-78
2022/09/18 09:23:23;;;;;;;1.55;0.60;;;15.00;99.50;;;;;;5052855;28;20412;-78
2022/09/18 09:25:58;;;;;;;2.08;1.02;;;15.00;99.40;;;;;;5052852;28;20528;-74
2022/09/18 09:28:47;;;;;;;4.30;0.80;;;14.90;99.90;;;;;;5053552;28;20029;-74
2022/09/18 09:31:18;;;;;;;1.55;0.68;;;14.90;99.90;;;;;;5051454;28;20075;-75
2022/09/18 09:34:10;;;;;;;2.80;0.60;;;14.80;99.90;;;;;;5051663;28;20021;-78
2022/09/18 09:36:40;;;;;;;1.90;0.80;;;14.70;99.90;;;;;;5052946;28;20033;-76
2022/09/18 09:39:25;;;;;;;1.75;0.80;;;14.70;99.90;;;;;;5052835;28;20021;-76
2022/09/18 09:42:15;;;;;;;3.45;0.82;;;14.60;99.90;;;;;;5053056;28;20025;-79
2022/09/18 09:45:25;;;;;;;1.88;0.40;;;14.60;99.90;;;;;;5052836;28;20021;-80
2022/09/18 09:48:18;;;;;;;1.20;0.43;;;14.60;99.90;;;;;;5052826;28;20161;-78
2022/09/18 09:51:23;;;;;;;3.28;0.50;;;14.60;99.90;;;;;;5056026;28;20116;-77
2022/09/18 09:53:54;;;;;;;3.25;1.02;;;14.60;99.90;;;;;;5053466;28;20017;-76
2022/09/18 09:56:35;;;;;;;1.83;0.63;;;14.50;99.90;;;;;;5067328;28;20155;-77
2022/09/18 09:59:13;;;;;;;1.95;0.68;;;14.50;99.90;;;;;;5073258;28;20044;-74
2022/09/18 10:01:53;;;;;;;3.35;1.10;;;14.50;99.90;;;;;;5069294;28;20021;-74
2022/09/18 10:04:39;;;;;;;0.82;0.55;;;14.50;99.90;;;;;;5070503;28;20063;-74
2022/09/18 10:07:32;;;;;;;2.65;0.75;;;14.40;99.90;;;;;;5062041;28;20020;-74
2022/09/18 10:10:13;;;;;;;4.65;1.30;;;14.40;99.90;;;;;;5067870;28;20029;-75
2022/09/18 10:12:55;;;;;;;2.80;1.13;;;14.40;99.90;;;;;;5071766;28;20036;-74
2022/09/18 10:15:39;;;;;;;3.92;0.85;;;14.30;99.90;;;;;;5070449;28;20027;-74
2022/09/18 10:18:15;;;;;;;2.95;0.80;;;14.30;99.90;;;;;;5072241;28;20025;-74
2022/09/18 10:20:42;;;;;;;;;;;14.20;99.90;;;;;;5068526;28;20039;-74
2022/09/18 10:23:21;;;;;;;5.75;0.63;;;14.10;99.90;;;;;;5071660;28;19908;-74
2022/09/18 10:25:58;;;;;;;1.85;0.70;;;14.10;99.90;;;;;;5068338;28;20028;-74
2022/09/18 10:28:28;;;;;;;1.50;0.63;;;14.10;99.90;;;;;;5064702;28;20541;-74
2022/09/18 10:31:10;;;;;;;2.28;0.50;;;14.00;99.90;;;;;;5071104;28;20107;-75
2022/09/18 10:33:41;;;;;;;3.10;0.80;;;14.00;99.90;;;;;;5071642;28;20070;-75
2022/09/18 10:36:24;;;;;;;2.40;0.60;;;14.00;99.90;;;;;;5072543;28;20021;-74
2022/09/18 10:38:52;;;;;;;3.38;0.90;;;14.00;99.90;;;;;;5066211;28;20013;-74
2022/09/18 10:41:34;;;;;;;1.10;0.70;;;14.00;99.90;;;;;;5064867;28;20497;-73
2022/09/18 10:44:20;;;;;;;3.13;0.52;;;14.00;99.90;;;;;;5070143;28;20107;-74
2022/09/18 10:46:54;;;;;;;6.00;0.70;;;14.00;99.90;;;;;;5071386;28;20027;-74
2022/09/18 10:49:31;;;;;;;1.40;0.60;;;14.10;99.90;;;;;;5070465;28;20052;-74
2022/09/18 10:52:15;;;;;;;2.55;0.70;;;14.00;99.90;;;;;;5072034;28;20081;-75
2022/09/18 10:54:57;;;;;;;3.13;0.90;;;14.00;99.90;;;;;;5068826;28;20043;-75
2022/09/18 10:57:32;;;;;;;3.33;1.02;;;14.00;99.90;;;;;;5069706;28;20056;-75
2022/09/18 11:00:03;;;;;;;0.90;0.60;;;13.90;99.90;;;;;;5068219;28;20472;-75
2022/09/18 11:02:38;;;;;;;4.40;0.68;;;13.90;99.90;;;;;;5071306;28;20102;-75
2022/09/18 11:05:17;;;;;;;1.70;0.70;;;13.90;99.90;;;;;;5069368;28;20078;-74
2022/09/18 11:07:56;;;;;;;1.05;0.60;;;13.80;99.90;;;;;;5068722;28;20092;-74
2022/09/18 11:10:26;;;;;;;4.63;0.80;;;13.80;99.90;;;;;;5065850;28;20028;-75
2022/09/18 11:12:59;;;;;;;10.65;0.63;;;13.80;99.90;;;;;;5067682;28;20492;-74
2022/09/18 11:15:32;;;;;;;1.77;0.40;;;13.70;99.90;;;;;;5067232;28;20028;-78
2022/09/18 11:18:06;;;;;;;1.25;0.40;;;13.70;99.90;;;;;;5067407;28;20114;-78
2022/09/18 11:20:43;;;;;;;3.63;0.73;;;13.60;99.90;;;;;;5071954;28;20029;-77
2022/09/18 11:23:22;;;;;;;1.15;0.60;;;13.60;99.90;;;;;;5067450;28;20017;-77
2022/09/18 11:26:08;;;;;;;3.92;0.57;;;13.60;99.90;;;;;;5083078;28;20400;-77
2022/09/18 11:28:35;;;;;;;3.10;0.60;;;13.50;99.90;;;;;;5067537;28;20027;-74
2022/09/18 11:31:18;;;;;;;5.25;0.90;;;13.50;99.90;;;;;;5071832;28;20059;-77
2022/09/18 11:34:00;;;;;;;1.88;0.80;;;13.40;99.90;;;;;;5070173;28;20031;-74
2022/09/18 11:36:31;;;;;;;1.52;0.65;;;13.40;99.90;;;;;;5036801;28;20140;-79
2022/09/18 11:39:00;;;;;;;2.40;1.08;;;13.40;99.90;;;;;;5068899;28;20484;-74
2022/09/18 11:41:35;;;;;;;2.42;0.98;;;13.40;99.90;;;;;;5067821;28;20020;-76
2022/09/18 11:44:05;;;;;;;3.30;0.70;;;13.40;99.90;;;;;;5068279;28;20025;-78
2022/09/18 11:47:01;;;;;;;2.42;0.80;;;13.50;99.90;;;;;;5070513;28;20036;-76
2022/09/18 11:49:40;;;;;;;1.20;0.57;;;13.50;99.90;;;;;;5076306;28;20021;-75
2022/09/18 11:53:00;;;;;;;2.08;0.63;;;13.60;99.90;;;;;;5077714;28;20087;-79
2022/09/18 11:55:43;;;;;;;3.78;1.15;;;13.50;99.90;;;;;;5039239;28;20449;-74
2022/09/18 11:58:25;;;;;;;2.95;0.75;;;13.50;99.90;;;;;;5034304;28;20017;-76
2022/09/18 12:01:16;;;;;;;1.58;0.70;;;13.40;99.90;;;;;;5055034;28;20044;-76
2022/09/18 12:04:06;;;;;;;1.67;0.60;;;13.40;99.90;;;;;;5076537;28;20048;-75
2022/09/18 12:06:49;;;;;;;1.67;0.60;;;13.40;99.90;;;;;;5071608;28;20036;-74
2022/09/18 12:09:35;;;;;;;1.05;0.55;;;13.40;99.90;;;;;;5071991;28;20092;-75
2022/09/18 12:12:26;;;;;;;1.92;0.77;;;13.40;99.90;;;;;;5075074;28;20052;-79
2022/09/18 12:15:12;;;;;;;1.10;0.50;;;13.40;99.90;;;;;;5070800;28;20025;-75
2022/09/18 12:17:46;;;;;;;4.65;1.17;;;13.30;99.90;;;;;;5077031;28;20100;-76
2022/09/18 12:20:22;;;;;;;0.93;0.50;;;13.30;99.90;;;;;;5080666;28;20025;-82
2022/09/18 12:22:55;;;;;;;2.05;0.77;;;13.30;99.90;;;;;;5081287;28;20017;-81
2022/09/18 12:25:33;;;;;;;1.73;0.52;;;13.30;99.90;;;;;;5082766;28;20027;-76
2022/09/18 12:28:28;;;;;;;2.28;0.73;;;13.20;99.90;;;;;;5076522;28;20027;-81
2022/09/18 12:31:14;;;;;;;1.83;0.60;;;13.20;99.90;;;;;;5066672;28;20029;-82
2022/09/18 12:34:12;;;;;;;3.65;0.60;;;13.20;99.90;;;;;;5068384;28;20017;-76
2022/09/18 12:36:46;;;;;;;2.47;0.68;;;13.20;99.90;;;;;;5069339;28;20028;-77
2022/09/18 12:39:29;;;;;;;1.60;0.77;;;13.20;99.90;;;;;;5059184;28;20036;-73
2022/09/18 12:42:14;;;;;;;2.10;0.98;;;13.10;99.90;;;;;;5075620;28;20083;-76
2022/09/18 12:45:02;;;;;;;2.55;0.80;;;13.10;99.90;;;;;;5071533;28;20381;-73
2022/09/18 12:48:08;;;;;;;4.20;0.77;;;13.10;99.90;;;;;;5066282;28;20036;-73
2022/09/18 12:51:06;;;;;;;4.47;0.90;;;13.10;99.90;;;;;;5057551;28;20031;-81
2022/09/18 12:53:49;;;;;;;1.65;0.65;;;13.10;99.90;;;;;;5052872;28;20044;-76
2022/09/18 12:56:39;;;;;;;1.55;0.45;;;13.10;99.90;;;;;;5048717;28;20036;-78
2022/09/18 12:59:44;;;;;;;2.80;1.23;;;13.10;99.90;;;;;;5069254;28;20021;-77
2022/09/18 13:02:44;;;;;;;2.58;0.88;;;13.10;99.90;;;;;;5054889;28;20087;-81
2022/09/18 13:05:37;;;;;;;4.63;0.75;;;13.10;99.90;;;;;;5047253;28;20470;-77
2022/09/18 13:08:27;;;;;;;4.47;1.00;;;13.00;99.90;;;;;;5055043;28;20458;-82
2022/09/18 13:11:04;;;;;;;3.30;1.20;;;13.00;99.90;;;;;;5066678;28;20044;-82
2022/09/18 13:13:49;;;;;;;2.35;0.70;;;13.00;99.90;;;;;;5054352;28;20103;-83
2022/09/18 13:16:38;;;;;;;1.65;0.73;;;13.00;99.90;;;;;;5049653;28;20024;-79
2022/09/18 13:19:19;;;;;;;1.50;0.70;;;12.90;99.90;;;;;;5050743;28;20017;-79
2022/09/18 13:21:50;;;;;;;1.42;0.70;;;12.90;99.90;;;;;;5064693;28;20470;-83
2022/09/18 13:24:31;;;;;;;2.95;1.10;;;12.90;99.90;;;;;;5068311;28;20021;-80
2022/09/18 13:27:07;;;;;;;5.10;0.75;;;12.80;99.90;;;;;;5060311;28;20028;-82
2022/09/18 13:29:50;;;;;;;3.25;1.27;;;12.80;99.90;;;;;;5057788;28;20029;-83